createdAt,value
2023-02-17T00:00:07.954Z,1013.57
2023-02-17T00:01:07.928Z,1013.53
2023-02-17T00:02:07.965Z,1013.53
2023-02-17T00:03:07.921Z,1013.46
2023-02-17T00:04:07.881Z,1013.47
2023-02-17T00:05:07.924Z,1013.48
2023-02-17T00:06:07.990Z,1013.46
2023-02-17T00:07:07.866Z,1013.46
2023-02-17T00:08:07.872Z,1013.45
2023-02-17T00:09:07.814Z,1013.47
2023-02-17T00:10:07.836Z,1013.42
2023-02-17T00:11:07.801Z,1013.44
2023-02-17T00:12:07.821Z,1013.49
2023-02-17T00:13:07.819Z,1013.39
2023-02-17T00:14:07.763Z,1013.35
2023-02-17T00:15:07.752Z,1013.40
2023-02-17T00:16:08.182Z,1013.36
2023-02-17T00:17:07.742Z,1013.36
2023-02-17T00:18:07.789Z,1013.36
2023-02-17T00:19:07.721Z,1013.36
2023-02-17T00:20:07.711Z,1013.34
2023-02-17T00:21:07.667Z,1013.35
2023-02-17T00:22:07.662Z,1013.30
2023-02-17T00:23:07.723Z,1013.32
2023-02-17T00:24:07.674Z,1013.35
2023-02-17T00:25:07.641Z,1013.31
2023-02-17T00:26:07.870Z,1013.35
2023-02-17T00:27:07.611Z,1013.37
2023-02-17T00:28:07.656Z,1013.25
2023-02-17T00:29:07.591Z,1013.31
2023-02-17T00:30:07.608Z,1013.35
2023-02-17T00:31:07.652Z,1013.37
2023-02-17T00:32:07.640Z,1013.35
2023-02-17T00:33:07.611Z,1013.38
2023-02-17T00:34:07.539Z,1013.39
2023-02-17T00:35:07.514Z,1013.31
2023-02-17T00:36:07.714Z,1013.34
2023-02-17T00:37:07.504Z,1013.28
2023-02-17T00:38:07.533Z,1013.31
2023-02-17T00:39:07.487Z,1013.35
2023-02-17T00:40:07.466Z,1013.32
2023-02-17T00:41:07.483Z,1013.37
2023-02-17T00:42:07.464Z,1013.44
2023-02-17T00:43:07.466Z,1013.43
2023-02-17T00:44:07.431Z,1013.42
2023-02-17T00:45:07.412Z,1013.42
2023-02-17T00:46:07.801Z,1013.40
2023-02-17T00:47:07.385Z,1013.34
2023-02-17T00:48:07.417Z,1013.32
2023-02-17T00:49:07.394Z,1013.36
2023-02-17T00:50:07.362Z,1013.30
2023-02-17T00:51:07.350Z,1013.30
2023-02-17T00:52:07.324Z,1013.35
2023-02-17T00:53:07.359Z,1013.32
2023-02-17T00:54:07.325Z,1013.30
2023-02-17T00:55:07.299Z,1013.31
2023-02-17T00:56:07.631Z,1013.23
2023-02-17T00:57:07.300Z,1013.21
2023-02-17T00:58:07.308Z,1013.22
2023-02-17T00:59:07.262Z,1013.21
2023-02-17T01:00:07.261Z,1013.15
2023-02-17T01:01:07.236Z,1013.13
2023-02-17T01:02:07.218Z,1013.18
2023-02-17T01:03:07.275Z,1013.13
2023-02-17T01:04:07.218Z,1013.15
2023-02-17T01:05:07.218Z,1013.10
2023-02-17T01:06:07.337Z,1013.08
2023-02-17T01:07:07.171Z,1013.12
2023-02-17T01:08:07.164Z,1013.11
2023-02-17T01:09:07.186Z,1013.10
2023-02-17T01:10:07.121Z,1013.08
2023-02-17T01:11:07.127Z,1013.10
2023-02-17T01:12:07.117Z,1013.09
2023-02-17T01:13:07.101Z,1013.11
2023-02-17T01:14:07.117Z,1013.12
2023-02-17T01:15:07.069Z,1013.15
2023-02-17T01:16:07.436Z,1013.15
2023-02-17T01:17:07.029Z,1013.17
2023-02-17T01:18:07.066Z,1013.24
2023-02-17T01:19:07.078Z,1013.15
2023-02-17T01:20:07.004Z,1013.15
2023-02-17T01:21:07.021Z,1013.13
2023-02-17T01:22:06.996Z,1013.14
2023-02-17T01:23:06.984Z,1013.11
2023-02-17T01:24:07.020Z,1013.14
2023-02-17T01:25:06.960Z,1013.08
2023-02-17T01:26:07.167Z,1013.09
2023-02-17T01:27:06.933Z,1013.06
2023-02-17T01:28:06.903Z,1013.05
2023-02-17T01:29:06.982Z,1013.03
2023-02-17T01:30:06.939Z,1013.06
2023-02-17T01:31:06.950Z,1012.99
2023-02-17T01:32:06.877Z,1013.01
2023-02-17T01:33:06.912Z,1012.98
2023-02-17T01:34:06.911Z,1012.94
2023-02-17T01:35:06.861Z,1012.92
2023-02-17T01:36:07.053Z,1012.86
2023-02-17T01:37:06.834Z,1012.86
2023-02-17T01:38:06.801Z,1012.83
2023-02-17T01:39:06.842Z,1012.84
2023-02-17T01:40:06.788Z,1012.83
2023-02-17T01:41:06.791Z,1012.86
2023-02-17T01:42:06.773Z,1012.83
2023-02-17T01:43:06.746Z,1012.80
2023-02-17T01:44:06.784Z,1012.79
2023-02-17T01:45:06.716Z,1012.77
2023-02-17T01:46:07.031Z,1012.75
2023-02-17T01:47:06.709Z,1012.73
2023-02-17T01:48:06.698Z,1012.72
2023-02-17T01:49:06.765Z,1012.71
2023-02-17T01:50:06.676Z,1012.65
2023-02-17T01:51:06.689Z,1012.71
2023-02-17T01:52:06.642Z,1012.64
2023-02-17T01:53:06.653Z,1012.59
2023-02-17T01:54:06.681Z,1012.57
2023-02-17T01:55:06.624Z,1012.50
2023-02-17T01:56:06.852Z,1012.47
2023-02-17T01:57:06.617Z,1012.45
2023-02-17T01:58:06.582Z,1012.45
2023-02-17T01:59:06.635Z,1012.42
2023-02-17T02:00:06.561Z,1012.39
2023-02-17T02:01:06.542Z,1012.38
2023-02-17T02:02:06.673Z,1012.39
2023-02-17T02:03:06.531Z,1012.33
2023-02-17T02:04:06.580Z,1012.32
2023-02-17T02:05:06.501Z,1012.28
2023-02-17T02:06:06.841Z,1012.31
2023-02-17T02:07:06.482Z,1012.27
2023-02-17T02:08:06.499Z,1012.26
2023-02-17T02:09:06.499Z,1012.27
2023-02-17T02:10:06.462Z,1012.28
2023-02-17T02:11:06.440Z,1012.28
2023-02-17T02:12:06.436Z,1012.27
2023-02-17T02:13:06.418Z,1012.25
2023-02-17T02:14:06.440Z,1012.20
2023-02-17T02:15:06.399Z,1012.18
2023-02-17T02:16:06.695Z,1012.19
2023-02-17T02:17:06.364Z,1012.17
2023-02-17T02:18:06.376Z,1012.17
2023-02-17T02:19:06.360Z,1012.17
2023-02-17T02:20:06.368Z,1012.13
2023-02-17T02:21:06.323Z,1012.11
2023-02-17T02:22:06.351Z,1012.16
2023-02-17T02:23:06.310Z,1012.19
2023-02-17T02:24:06.312Z,1012.14
2023-02-17T02:25:06.331Z,1012.20
2023-02-17T02:26:06.603Z,1012.12
2023-02-17T02:27:06.280Z,1012.10
2023-02-17T02:28:06.245Z,1012.12
2023-02-17T02:29:06.264Z,1012.10
2023-02-17T02:30:06.311Z,1012.07
2023-02-17T02:31:06.246Z,1012.07
2023-02-17T02:32:06.207Z,1012.06
2023-02-17T02:33:06.210Z,1012.00
2023-02-17T02:34:06.206Z,1012.00
2023-02-17T02:35:06.241Z,1011.99
2023-02-17T02:36:06.613Z,1011.99
2023-02-17T02:37:06.152Z,1012.01
2023-02-17T02:38:07.126Z,1012.01
2023-02-17T02:39:06.146Z,1012.00
2023-02-17T02:40:06.174Z,1011.96
2023-02-17T02:41:06.108Z,1011.92
2023-02-17T02:42:06.103Z,1011.91
2023-02-17T02:43:06.082Z,1011.91
2023-02-17T02:44:06.091Z,1011.83
2023-02-17T02:45:06.090Z,1011.84
2023-02-17T02:46:06.447Z,1011.84
2023-02-17T02:47:06.048Z,1011.79
2023-02-17T02:48:06.048Z,1011.88
2023-02-17T02:49:06.028Z,1011.82
2023-02-17T02:50:06.111Z,1011.79
2023-02-17T02:51:06.023Z,1011.80
2023-02-17T02:52:05.985Z,1011.76
2023-02-17T02:53:05.976Z,1011.83
2023-02-17T02:54:05.974Z,1011.82
2023-02-17T02:55:06.006Z,1011.81
2023-02-17T02:56:06.201Z,1011.85
2023-02-17T02:57:05.957Z,1011.79
2023-02-17T02:58:05.936Z,1011.79
2023-02-17T02:59:05.909Z,1011.77
2023-02-17T03:00:05.944Z,1011.76
2023-02-17T03:01:05.976Z,1011.74
2023-02-17T03:02:05.894Z,1011.76
2023-02-17T03:03:05.865Z,1011.73
2023-02-17T03:04:05.896Z,1011.74
2023-02-17T03:05:05.861Z,1011.72
2023-02-17T03:06:06.094Z,1011.69
2023-02-17T03:07:05.824Z,1011.68
2023-02-17T03:08:05.818Z,1011.63
2023-02-17T03:09:05.803Z,1011.65
2023-02-17T03:10:05.831Z,1011.67
2023-02-17T03:11:05.765Z,1011.61
2023-02-17T03:12:05.754Z,1011.58
2023-02-17T03:13:05.752Z,1011.58
2023-02-17T03:14:05.748Z,1011.54
2023-02-17T03:15:05.782Z,1011.51
2023-02-17T03:16:06.072Z,1011.50
2023-02-17T03:17:05.709Z,1011.52
2023-02-17T03:18:05.719Z,1011.49
2023-02-17T03:19:05.700Z,1011.47
2023-02-17T03:20:05.734Z,1011.45
2023-02-17T03:21:05.678Z,1011.40
2023-02-17T03:22:05.654Z,1011.41
2023-02-17T03:23:05.654Z,1011.43
2023-02-17T03:24:05.641Z,1011.39
2023-02-17T03:25:05.676Z,1011.41
2023-02-17T03:26:05.838Z,1011.38
2023-02-17T03:27:05.645Z,1011.43
2023-02-17T03:28:05.597Z,1011.35
2023-02-17T03:29:05.598Z,1011.31
2023-02-17T03:30:05.643Z,1011.29
2023-02-17T03:31:05.593Z,1011.25
2023-02-17T03:32:05.550Z,1011.25
2023-02-17T03:33:05.522Z,1011.24
2023-02-17T03:34:05.537Z,1011.26
2023-02-17T03:35:05.568Z,1011.24
2023-02-17T03:36:05.744Z,1011.19
2023-02-17T03:37:05.480Z,1011.15
2023-02-17T03:38:05.468Z,1011.15
2023-02-17T03:39:05.453Z,1011.11
2023-02-17T03:40:05.449Z,1011.13
2023-02-17T03:41:05.495Z,1011.13
2023-02-17T03:42:05.443Z,1011.16
2023-02-17T03:43:05.440Z,1011.14
2023-02-17T03:44:05.417Z,1011.17
2023-02-17T03:45:05.399Z,1011.16
2023-02-17T03:46:05.851Z,1011.24
2023-02-17T03:47:05.385Z,1011.20
2023-02-17T03:48:05.369Z,1011.14
2023-02-17T03:49:05.371Z,1011.17
2023-02-17T03:50:05.336Z,1011.20
2023-02-17T03:51:05.373Z,1011.19
2023-02-17T03:52:05.337Z,1011.15
2023-02-17T03:53:05.320Z,1011.19
2023-02-17T03:54:05.318Z,1011.20
2023-02-17T03:55:05.287Z,1011.12
2023-02-17T03:56:05.616Z,1011.12
2023-02-17T03:57:05.265Z,1011.06
2023-02-17T03:58:05.234Z,1011.09
2023-02-17T03:59:05.252Z,1011.11
2023-02-17T04:00:05.234Z,1011.06
2023-02-17T04:01:05.268Z,1011.09
2023-02-17T04:02:05.211Z,1011.04
2023-02-17T04:03:05.188Z,1010.99
2023-02-17T04:04:05.233Z,1011.05
2023-02-17T04:05:05.160Z,1011.06
2023-02-17T04:06:05.604Z,1011.07
2023-02-17T04:07:05.144Z,1011.07
2023-02-17T04:08:05.126Z,1011.09
2023-02-17T04:09:05.150Z,1011.09
2023-02-17T04:10:07.183Z,1010.99
2023-02-17T04:11:05.140Z,1010.99
2023-02-17T04:12:05.113Z,1011.05
2023-02-17T04:13:05.119Z,1011.02
2023-02-17T04:14:05.084Z,1011.01
2023-02-17T04:15:05.069Z,1011.02
2023-02-17T04:16:05.532Z,1011.07
2023-02-17T04:17:05.022Z,1011.06
2023-02-17T04:18:05.011Z,1011.02
2023-02-17T04:19:04.989Z,1010.99
2023-02-17T04:20:05.016Z,1010.98
2023-02-17T04:21:05.076Z,1010.93
2023-02-17T04:22:04.990Z,1010.97
2023-02-17T04:23:04.968Z,1010.96
2023-02-17T04:24:04.936Z,1010.91
2023-02-17T04:25:04.928Z,1010.89
2023-02-17T04:26:05.303Z,1010.91
2023-02-17T04:27:04.928Z,1010.91
2023-02-17T04:28:04.912Z,1010.91
2023-02-17T04:29:04.896Z,1010.88
2023-02-17T04:30:04.934Z,1010.86
2023-02-17T04:31:05.010Z,1010.88
2023-02-17T04:32:04.930Z,1010.86
2023-02-17T04:33:04.836Z,1010.92
2023-02-17T04:34:04.829Z,1010.94
2023-02-17T04:35:04.796Z,1010.99
2023-02-17T04:36:05.224Z,1010.95
2023-02-17T04:37:04.783Z,1010.93
2023-02-17T04:38:04.783Z,1010.92
2023-02-17T04:39:04.785Z,1010.95
2023-02-17T04:40:04.762Z,1010.90
2023-02-17T04:41:04.779Z,1010.94
2023-02-17T04:42:04.738Z,1010.86
2023-02-17T04:43:04.737Z,1010.81
2023-02-17T04:44:04.728Z,1010.81
2023-02-17T04:45:04.704Z,1010.84
2023-02-17T04:46:05.366Z,1010.81
2023-02-17T04:47:04.693Z,1010.79
2023-02-17T04:48:04.657Z,1010.78
2023-02-17T04:49:04.676Z,1010.82
2023-02-17T04:50:04.651Z,1010.77
2023-02-17T04:51:04.687Z,1010.76
2023-02-17T04:52:04.628Z,1010.75
2023-02-17T04:53:04.615Z,1010.71
2023-02-17T04:54:04.606Z,1010.70
2023-02-17T04:55:04.577Z,1010.74
2023-02-17T04:56:04.948Z,1010.71
2023-02-17T04:57:04.566Z,1010.71
2023-02-17T04:58:04.536Z,1010.63
2023-02-17T04:59:04.541Z,1010.65
2023-02-17T05:00:04.571Z,1010.63
2023-02-17T05:01:04.571Z,1010.62
2023-02-17T05:02:04.505Z,1010.61
2023-02-17T05:03:04.496Z,1010.60
2023-02-17T05:04:04.468Z,1010.59
2023-02-17T05:05:04.542Z,1010.62
2023-02-17T05:06:04.755Z,1010.59
2023-02-17T05:07:04.468Z,1010.53
2023-02-17T05:08:04.460Z,1010.55
2023-02-17T05:09:04.427Z,1010.55
2023-02-17T05:10:04.429Z,1010.55
2023-02-17T05:11:04.476Z,1010.48
2023-02-17T05:12:04.401Z,1010.52
2023-02-17T05:13:04.379Z,1010.60
2023-02-17T05:14:04.402Z,1010.57
2023-02-17T05:15:04.352Z,1010.60
2023-02-17T05:16:04.793Z,1010.58
2023-02-17T05:17:04.353Z,1010.58
2023-02-17T05:18:04.331Z,1010.64
2023-02-17T05:19:04.325Z,1010.63
2023-02-17T05:20:04.296Z,1010.68
2023-02-17T05:21:04.333Z,1010.68
2023-02-17T05:22:04.297Z,1010.65
2023-02-17T05:23:04.256Z,1010.64
2023-02-17T05:24:04.255Z,1010.62
2023-02-17T05:25:04.250Z,1010.57
2023-02-17T05:26:04.580Z,1010.62
2023-02-17T05:27:04.247Z,1010.61
2023-02-17T05:28:04.213Z,1010.60
2023-02-17T05:29:04.196Z,1010.59
2023-02-17T05:30:04.244Z,1010.56
2023-02-17T05:31:04.242Z,1010.62
2023-02-17T05:32:04.224Z,1010.57
2023-02-17T05:33:04.158Z,1010.58
2023-02-17T05:34:04.145Z,1010.58
2023-02-17T05:35:04.133Z,1010.59
2023-02-17T05:36:04.550Z,1010.57
2023-02-17T05:37:04.088Z,1010.54
2023-02-17T05:38:04.091Z,1010.58
2023-02-17T05:39:04.086Z,1010.58
2023-02-17T05:40:04.070Z,1010.63
2023-02-17T05:41:04.094Z,1010.61
2023-02-17T05:42:04.034Z,1010.62
2023-02-17T05:43:04.048Z,1010.59
2023-02-17T05:44:04.030Z,1010.57
2023-02-17T05:45:04.001Z,1010.57
2023-02-17T05:46:04.329Z,1010.54
2023-02-17T05:47:04.022Z,1010.52
2023-02-17T05:48:03.983Z,1010.47
2023-02-17T05:49:03.986Z,1010.47
2023-02-17T05:50:03.964Z,1010.41
2023-02-17T05:51:04.031Z,1010.46
2023-02-17T05:52:03.928Z,1010.40
2023-02-17T05:53:03.915Z,1010.43
2023-02-17T05:54:03.938Z,1010.43
2023-02-17T05:55:03.884Z,1010.38
2023-02-17T05:56:04.283Z,1010.43
2023-02-17T05:57:03.879Z,1010.48
2023-02-17T05:58:03.876Z,1010.48
2023-02-17T05:59:03.877Z,1010.47
2023-02-17T06:00:03.854Z,1010.40
2023-02-17T06:01:03.869Z,1010.37
2023-02-17T06:02:03.804Z,1010.35
2023-02-17T06:03:03.839Z,1010.36
2023-02-17T06:04:03.814Z,1010.28
2023-02-17T06:05:03.953Z,1010.34
2023-02-17T06:06:03.948Z,1010.35
2023-02-17T06:07:03.760Z,1010.33
2023-02-17T06:08:03.756Z,1010.29
2023-02-17T06:09:03.739Z,1010.27
2023-02-17T06:10:03.743Z,1010.27
2023-02-17T06:11:03.765Z,1010.21
2023-02-17T06:12:03.710Z,1010.14
2023-02-17T06:13:03.744Z,1010.11
2023-02-17T06:14:03.696Z,1010.09
2023-02-17T06:15:03.677Z,1010.08
2023-02-17T06:16:03.834Z,1010.08
2023-02-17T06:17:03.658Z,1010.13
2023-02-17T06:18:03.633Z,1010.18
2023-02-17T06:19:03.616Z,1010.13
2023-02-17T06:20:03.621Z,1010.14
2023-02-17T06:21:03.654Z,1010.21
2023-02-17T06:22:03.592Z,1010.17
2023-02-17T06:23:03.591Z,1010.15
2023-02-17T06:24:03.567Z,1010.16
2023-02-17T06:25:03.552Z,1010.18
2023-02-17T06:26:03.824Z,1010.15
2023-02-17T06:27:03.527Z,1010.12
2023-02-17T06:28:03.525Z,1010.11
2023-02-17T06:29:03.497Z,1010.15
2023-02-17T06:30:03.502Z,1010.11
2023-02-17T06:31:03.629Z,1010.13
2023-02-17T06:32:03.530Z,1010.11
2023-02-17T06:33:03.486Z,1010.12
2023-02-17T06:34:06.375Z,1010.10
2023-02-17T06:35:03.445Z,1010.06
2023-02-17T06:36:03.656Z,1010.05
2023-02-17T06:37:03.419Z,1010.05
2023-02-17T06:38:03.430Z,1010.10
2023-02-17T06:39:03.425Z,1010.12
2023-02-17T06:40:03.372Z,1010.12
2023-02-17T06:41:03.374Z,1010.15
2023-02-17T06:42:03.381Z,1010.19
2023-02-17T06:43:03.337Z,1010.16
2023-02-17T06:44:03.329Z,1010.19
2023-02-17T06:45:03.335Z,1010.14
2023-02-17T06:46:03.339Z,1010.15
2023-02-17T06:47:03.319Z,1010.14
2023-02-17T06:48:03.293Z,1010.18
2023-02-17T06:50:12.713Z,1010.10
2023-02-17T06:51:12.684Z,1010.11
2023-02-17T06:52:12.707Z,1010.09
2023-02-17T06:53:12.648Z,1010.10
2023-02-17T06:54:12.641Z,1010.02
2023-02-17T06:55:12.642Z,1010.06
2023-02-17T06:56:12.643Z,1010.06
2023-02-17T06:57:12.625Z,1010.02
2023-02-17T06:58:12.568Z,1010.01
2023-02-17T06:59:12.603Z,1010.04
2023-02-17T07:00:12.567Z,1009.98
2023-02-17T07:01:12.582Z,1010.03
2023-02-17T07:02:12.679Z,1010.07
2023-02-17T07:03:12.604Z,1010.04
2023-02-17T07:04:12.545Z,1009.98
2023-02-17T07:05:12.523Z,1010.09
2023-02-17T07:06:12.515Z,1010.06
2023-02-17T07:07:12.538Z,1010.09
2023-02-17T07:08:12.504Z,1010.07
2023-02-17T07:09:12.485Z,1010.13
2023-02-17T07:10:12.473Z,1010.14
2023-02-17T07:11:12.466Z,1010.12
2023-02-17T07:12:12.483Z,1010.17
2023-02-17T07:13:12.440Z,1010.12
2023-02-17T07:14:12.437Z,1010.14
2023-02-17T07:15:12.671Z,1010.09
2023-02-17T07:16:12.432Z,1010.07
2023-02-17T07:17:12.438Z,1010.09
2023-02-17T07:18:12.379Z,1010.11
2023-02-17T07:19:12.373Z,1010.10
2023-02-17T07:20:12.336Z,1010.10
2023-02-17T07:21:12.356Z,1010.06
2023-02-17T07:22:12.400Z,1010.14
2023-02-17T07:23:12.336Z,1010.07
2023-02-17T07:24:12.308Z,1010.11
2023-02-17T07:25:12.287Z,1010.10
2023-02-17T07:26:12.298Z,1010.06
2023-02-17T07:27:12.309Z,1010.02
2023-02-17T07:28:12.272Z,1009.98
2023-02-17T07:29:12.265Z,1010.01
2023-02-17T07:30:12.277Z,1009.98
2023-02-17T07:31:12.333Z,1009.94
2023-02-17T07:32:12.253Z,1009.98
2023-02-17T07:33:12.216Z,1009.93
2023-02-17T07:34:12.197Z,1009.96
2023-02-17T07:35:12.239Z,1009.90
2023-02-17T07:36:12.186Z,1009.93
2023-02-17T07:37:12.203Z,1009.91
2023-02-17T07:38:12.145Z,1009.85
2023-02-17T07:39:12.172Z,1009.89
2023-02-17T07:40:12.141Z,1009.88
2023-02-17T07:41:12.121Z,1009.94
2023-02-17T07:42:12.136Z,1009.96
2023-02-17T07:43:12.080Z,1009.93
2023-02-17T07:44:12.091Z,1009.93
2023-02-17T07:45:12.073Z,1009.95
2023-02-17T07:46:12.088Z,1009.92
2023-02-17T07:47:12.067Z,1009.92
2023-02-17T07:48:12.056Z,1009.91
2023-02-17T07:49:12.027Z,1009.95
2023-02-17T07:50:12.013Z,1009.89
2023-02-17T07:51:12.012Z,1009.88
2023-02-17T07:52:12.032Z,1009.87
2023-02-17T07:53:11.969Z,1009.90
2023-02-17T07:54:11.942Z,1009.85
2023-02-17T07:55:11.937Z,1009.85
2023-02-17T07:56:11.948Z,1009.89
2023-02-17T07:57:11.939Z,1009.81
2023-02-17T07:58:11.952Z,1009.84
2023-02-17T07:59:11.928Z,1009.84
2023-02-17T08:00:11.897Z,1009.79
2023-02-17T08:01:11.885Z,1009.80
2023-02-17T08:02:11.935Z,1009.81
2023-02-17T08:03:11.940Z,1009.82
2023-02-17T08:04:11.898Z,1009.83
2023-02-17T08:05:11.842Z,1009.79
2023-02-17T08:06:11.849Z,1009.75
2023-02-17T08:07:11.816Z,1009.71
2023-02-17T08:08:11.856Z,1009.76
2023-02-17T08:09:11.828Z,1009.75
2023-02-17T08:10:11.787Z,1009.73
2023-02-17T08:11:11.775Z,1009.75
2023-02-17T08:12:11.757Z,1009.69
2023-02-17T08:13:11.817Z,1009.69
2023-02-17T08:14:13.209Z,1009.66
2023-02-17T08:15:11.717Z,1009.71
2023-02-17T08:16:11.711Z,1009.70
2023-02-17T08:17:11.710Z,1009.75
2023-02-17T08:18:11.735Z,1009.68
2023-02-17T08:19:11.675Z,1009.74
2023-02-17T08:20:11.679Z,1009.67
2023-02-17T08:21:11.677Z,1009.64
2023-02-17T08:22:11.625Z,1009.56
2023-02-17T08:23:11.684Z,1009.63
2023-02-17T08:24:11.625Z,1009.58
